Disclaimer

Please do not use the information listed here in-flight or in-navigation, as they are not provided to us by the airports but are provided by volunteers, so they might be outdated.

Search


Regions


Airport information page

Radio informations:
Tower (TWR) - 128.775 MHz
FIRE - 121.6 MHz
Automatic Terminal Information Service (ATIS) - 134.95 MHz
Approach (APP) - 126.225 MHz

Airport informations:
Latitude: 53° 28' 29.00" N
Longitude: 001° 00' 16.00" W
Elevation: 55 feet - 17 meters
Operating hours: Remarks
Operating agency: Civil government, landing fees and diplomatic clearance may be required
Timezone: UTC 0
Fuel: Jet A1+, Jet A1 with icing inhibitor.

100/130 MIL Spec, low lead, aviation gasoline (BLUE)

Runway information:
02/20 - 9491 x 197 feet< - >2893 x 60 meters

Recent METARs:
EGCN 170750Z 08003KT 6000 OVC013 09/08 Q1030
EGCN 170820Z 06003KT 6000 BKN009 OVC014 09/09 Q1030
EGCN 170850Z 04004KT 5000 HZ OVC011 10/09 Q1030

Airport on the map: